sensor_id;sensor_type;location;lat;lon;timestamp;P1;durP1;ratioP1;P2;durP2;ratioP2
14675;SDS011;7426;52.524;13.460;2022-10-31T00:00:14;26.5;;;17.974999999999998;;
14675;SDS011;7426;52.524;13.460;2022-10-31T00:02:14;30.0625;;;15.8625;;
14675;SDS011;7426;52.524;13.460;2022-10-31T00:04:14;29.012500000000003;;;16.2875;;
14675;SDS011;7426;52.524;13.460;2022-10-31T00:06:14;23.1875;;;16.5125;;
14675;SDS011;7426;52.524;13.460;2022-10-31T00:08:14;27.9;;;18.5625;;
14675;SDS011;7426;52.524;13.460;2022-10-31T00:10:14;22.7125;;;17.2125;;
14675;SDS011;7426;52.524;13.460;2022-10-31T00:12:14;23.55;;;15.875;;
14675;SDS011;7426;52.524;13.460;2022-10-31T00:14:14;25.125;;;16.0875;;
14675;SDS011;7426;52.524;13.460;2022-10-31T00:16:14;27.4625;;;17.2625;;
14675;SDS011;7426;52.524;13.460;2022-10-31T00:18:14;24.6625;;;16.5;;
14675;SDS011;7426;52.524;13.460;2022-10-31T00:20:14;27.2125;;;16.9125;;
14675;SDS011;7426;52.524;13.460;2022-10-31T00:22:14;26.675;;;17.7875;;
14675;SDS011;7426;52.524;13.460;2022-10-31T00:24:14;21.15;;;14.8375;;
14675;SDS011;7426;52.524;13.460;2022-10-31T00:26:14;24.4375;;;15.075;;
14675;SDS011;7426;52.524;13.460;2022-10-31T00:28:14;27.037499999999998;;;15.212499999999999;;
14675;SDS011;7426;52.524;13.460;2022-10-31T00:30:14;24.4875;;;15.925;;
14675;SDS011;7426;52.524;13.460;2022-10-31T00:32:15;27.375;;;15.625;;
14675;SDS011;7426;52.524;13.460;2022-10-31T00:34:14;26.3625;;;17.987499999999997;;
14675;SDS011;7426;52.524;13.460;2022-10-31T00:36:14;20.6125;;;15.524999999999999;;
14675;SDS011;7426;52.524;13.460;2022-10-31T00:38:14;24.675;;;18.275;;
14675;SDS011;7426;52.524;13.460;2022-10-31T00:40:14;22.575;;;16.75;;
14675;SDS011;7426;52.524;13.460;2022-10-31T00:42:14;32.287499999999994;;;15.5625;;
14675;SDS011;7426;52.524;13.460;2022-10-31T00:44:14;24.299999999999997;;;15.737499999999999;;
14675;SDS011;7426;52.524;13.460;2022-10-31T00:46:14;23.5875;;;16.375;;
14675;SDS011;7426;52.524;13.460;2022-10-31T00:48:14;28.05;;;17.975;;
14675;SDS011;7426;52.524;13.460;2022-10-31T00:50:14;37.0125;;;15.8375;;
14675;SDS011;7426;52.524;13.460;2022-10-31T00:52:14;36.35;;;18.5625;;
14675;SDS011;7426;52.524;13.460;2022-10-31T00:54:14;27.562500000000004;;;19.174999999999997;;
14675;SDS011;7426;52.524;13.460;2022-10-31T00:56:14;27.9125;;;17.8;;
14675;SDS011;7426;52.524;13.460;2022-10-31T00:58:14;23.65;;;16.849999999999998;;
14675;SDS011;7426;52.524;13.460;2022-10-31T01:00:14;23.6125;;;15.7625;;
14675;SDS011;7426;52.524;13.460;2022-10-31T01:02:14;26.35;;;17.2125;;
14675;SDS011;7426;52.524;13.460;2022-10-31T01:04:14;37.3;;;16.7625;;
14675;SDS011;7426;52.524;13.460;2022-10-31T01:06:14;34.162499999999994;;;16.0;;
14675;SDS011;7426;52.524;13.460;2022-10-31T01:08:14;35.4375;;;18.6875;;
14675;SDS011;7426;52.524;13.460;2022-10-31T01:10:14;24.7125;;;15.4;;
14675;SDS011;7426;52.524;13.460;2022-10-31T01:12:14;21.225;;;15.262500000000001;;
14675;SDS011;7426;52.524;13.460;2022-10-31T01:14:15;18.7875;;;15.2125;;
14675;SDS011;7426;52.524;13.460;2022-10-31T01:16:15;33.574999999999996;;;18.9625;;
14675;SDS011;7426;52.524;13.460;2022-10-31T01:18:14;23.3;;;14.75;;
14675;SDS011;7426;52.524;13.460;2022-10-31T01:20:14;21.375;;;16.174999999999997;;
14675;SDS011;7426;52.524;13.460;2022-10-31T01:22:14;23.0625;;;14.4375;;
14675;SDS011;7426;52.524;13.460;2022-10-31T01:24:14;28.4125;;;16.8875;;
14675;SDS011;7426;52.524;13.460;2022-10-31T01:26:16;25.925;;;15.1125;;
14675;SDS011;7426;52.524;13.460;2022-10-31T01:28:14;23.9;;;15.5375;;
14675;SDS011;7426;52.524;13.460;2022-10-31T01:30:14;24.049999999999997;;;14.7375;;
14675;SDS011;7426;52.524;13.460;2022-10-31T01:32:14;18.8625;;;13.325;;
14675;SDS011;7426;52.524;13.460;2022-10-31T01:34:15;21.4125;;;15.3625;;
14675;SDS011;7426;52.524;13.460;2022-10-31T01:36:15;24.25;;;16.7875;;
14675;SDS011;7426;52.524;13.460;2022-10-31T01:38:14;19.85;;;14.9125;;
14675;SDS011;7426;52.524;13.460;2022-10-31T01:40:14;17.575000000000003;;;12.462499999999999;;
14675;SDS011;7426;52.524;13.460;2022-10-31T01:42:15;22.65;;;14.825000000000001;;
14675;SDS011;7426;52.524;13.460;2022-10-31T01:45:20;26.487500000000004;;;15.237499999999999;;
14675;SDS011;7426;52.524;13.460;2022-10-31T01:46:15;16.6;;;13.649999999999999;;
14675;SDS011;7426;52.524;13.460;2022-10-31T01:48:15;18.5;;;12.3125;;
14675;SDS011;7426;52.524;13.460;2022-10-31T01:50:16;19.425;;;11.6;;
14675;SDS011;7426;52.524;13.460;2022-10-31T01:52:16;20.95;;;12.8125;;
14675;SDS011;7426;52.524;13.460;2022-10-31T01:54:15;17.3;;;11.412500000000001;;
14675;SDS011;7426;52.524;13.460;2022-10-31T01:56:14;16.325;;;11.1875;;
14675;SDS011;7426;52.524;13.460;2022-10-31T01:58:15;22.9875;;;12.2625;;
14675;SDS011;7426;52.524;13.460;2022-10-31T02:00:15;20.4125;;;13.0875;;
14675;SDS011;7426;52.524;13.460;2022-10-31T02:02:13;20.7375;;;11.375;;
14675;SDS011;7426;52.524;13.460;2022-10-31T02:04:14;17.1;;;11.5;;
14675;SDS011;7426;52.524;13.460;2022-10-31T02:06:19;23.900000000000002;;;13.6625;;
14675;SDS011;7426;52.524;13.460;2022-10-31T02:08:15;18.6;;;11.3;;
14675;SDS011;7426;52.524;13.460;2022-10-31T02:10:14;15.925;;;10.899999999999999;;
14675;SDS011;7426;52.524;13.460;2022-10-31T02:12:14;22.325000000000003;;;11.1375;;
14675;SDS011;7426;52.524;13.460;2022-10-31T02:14:14;25.4625;;;11.649999999999999;;
14675;SDS011;7426;52.524;13.460;2022-10-31T02:16:14;30.2125;;;12.9375;;
14675;SDS011;7426;52.524;13.460;2022-10-31T02:18:14;17.35;;;11.450000000000001;;
14675;SDS011;7426;52.524;13.460;2022-10-31T02:20:15;20.837500000000002;;;11.75;;
14675;SDS011;7426;52.524;13.460;2022-10-31T02:22:15;18.650000000000002;;;10.9;;
14675;SDS011;7426;52.524;13.460;2022-10-31T02:24:24;18.425;;;12.0;;
14675;SDS011;7426;52.524;13.460;2022-10-31T02:26:21;26.5875;;;11.7375;;
14675;SDS011;7426;52.524;13.460;2022-10-31T02:28:20;14.55;;;10.3;;
14675;SDS011;7426;52.524;13.460;2022-10-31T02:30:15;15.875;;;10.0125;;
14675;SDS011;7426;52.524;13.460;2022-10-31T02:32:15;15.537499999999998;;;11.15;;
14675;SDS011;7426;52.524;13.460;2022-10-31T02:34:16;14.174999999999999;;;9.525;;
14675;SDS011;7426;52.524;13.460;2022-10-31T02:36:16;16.35;;;10.325000000000001;;
14675;SDS011;7426;52.524;13.460;2022-10-31T02:38:18;12.4125;;;10.0625;;
14675;SDS011;7426;52.524;13.460;2022-10-31T02:40:15;14.45;;;9.662500000000001;;
14675;SDS011;7426;52.524;13.460;2022-10-31T02:42:16;17.8125;;;10.075000000000001;;
14675;SDS011;7426;52.524;13.460;2022-10-31T02:44:15;23.587500000000002;;;12.2;;
14675;SDS011;7426;52.524;13.460;2022-10-31T02:50:16;13.375;;;9.7625;;
14675;SDS011;7426;52.524;13.460;2022-10-31T02:52:16;12.149999999999999;;;9.349999999999998;;
14675;SDS011;7426;52.524;13.460;2022-10-31T02:54:17;10.2875;;;8.9125;;
14675;SDS011;7426;52.524;13.460;2022-10-31T02:56:15;15.0;;;9.9125;;
14675;SDS011;7426;52.524;13.460;2022-10-31T02:58:15;19.6875;;;11.575;;
14675;SDS011;7426;52.524;13.460;2022-10-31T03:00:15;15.6125;;;9.325;;
14675;SDS011;7426;52.524;13.460;2022-10-31T03:02:33;15.675;;;9.725;;
14675;SDS011;7426;52.524;13.460;2022-10-31T03:04:16;18.575;;;9.9375;;
14675;SDS011;7426;52.524;13.460;2022-10-31T03:06:15;17.4375;;;10.0625;;
14675;SDS011;7426;52.524;13.460;2022-10-31T03:08:15;14.649999999999999;;;9.3375;;
14675;SDS011;7426;52.524;13.460;2022-10-31T03:10:16;16.4;;;11.15;;
14675;SDS011;7426;52.524;13.460;2022-10-31T03:12:15;22.3125;;;12.275;;
14675;SDS011;7426;52.524;13.460;2022-10-31T03:14:16;12.412500000000001;;;10.6875;;
14675;SDS011;7426;52.524;13.460;2022-10-31T03:16:16;13.337499999999999;;;11.475000000000001;;
14675;SDS011;7426;52.524;13.460;2022-10-31T03:18:15;13.2875;;;10.0125;;
14675;SDS011;7426;52.524;13.460;2022-10-31T03:20:14;20.0375;;;12.0625;;
14675;SDS011;7426;52.524;13.460;2022-10-31T03:22:15;14.925;;;9.6125;;
14675;SDS011;7426;52.524;13.460;2022-10-31T03:24:15;13.1125;;;9.6875;;
14675;SDS011;7426;52.524;13.460;2022-10-31T03:26:14;15.874999999999998;;;9.950000000000001;;
14675;SDS011;7426;52.524;13.460;2022-10-31T03:28:15;21.6625;;;11.6125;;
14675;SDS011;7426;52.524;13.460;2022-10-31T03:30:14;19.475;;;9.850000000000001;;
14675;SDS011;7426;52.524;13.460;2022-10-31T03:32:15;13.7125;;;9.4375;;
14675;SDS011;7426;52.524;13.460;2022-10-31T03:34:15;17.1;;;10.55;;
14675;SDS011;7426;52.524;13.460;2022-10-31T03:36:14;14.0875;;;10.975;;
14675;SDS011;7426;52.524;13.460;2022-10-31T03:38:14;16.1125;;;9.475000000000001;;
14675;SDS011;7426;52.524;13.460;2022-10-31T03:40:14;19.7375;;;10.025;;
14675;SDS011;7426;52.524;13.460;2022-10-31T03:42:15;15.7;;;10.3125;;
14675;SDS011;7426;52.524;13.460;2022-10-31T03:44:14;24.6625;;;11.5;;
14675;SDS011;7426;52.524;13.460;2022-10-31T03:46:15;16.599999999999998;;;10.649999999999999;;
14675;SDS011;7426;52.524;13.460;2022-10-31T03:48:16;11.875;;;8.7125;;
14675;SDS011;7426;52.524;13.460;2022-10-31T03:50:14;18.575000000000003;;;9.775;;
14675;SDS011;7426;52.524;13.460;2022-10-31T03:52:17;15.462499999999999;;;9.462499999999999;;
14675;SDS011;7426;52.524;13.460;2022-10-31T03:54:16;15.3125;;;9.075;;
14675;SDS011;7426;52.524;13.460;2022-10-31T03:56:16;12.0625;;;8.7375;;
14675;SDS011;7426;52.524;13.460;2022-10-31T03:58:16;12.4375;;;8.725;;
14675;SDS011;7426;52.524;13.460;2022-10-31T04:00:14;24.825;;;8.375;;
14675;SDS011;7426;52.524;13.460;2022-10-31T04:02:15;17.1625;;;10.5625;;
14675;SDS011;7426;52.524;13.460;2022-10-31T04:04:14;26.75;;;10.125;;
14675;SDS011;7426;52.524;13.460;2022-10-31T04:06:14;20.862499999999997;;;8.0375;;
14675;SDS011;7426;52.524;13.460;2022-10-31T04:08:14;14.0125;;;8.0;;
14675;SDS011;7426;52.524;13.460;2022-10-31T04:10:15;11.6125;;;8.0375;;
14675;SDS011;7426;52.524;13.460;2022-10-31T04:12:15;13.3875;;;8.8375;;
14675;SDS011;7426;52.524;13.460;2022-10-31T04:14:15;12.925;;;8.3375;;
14675;SDS011;7426;52.524;13.460;2022-10-31T04:16:14;22.3875;;;9.575;;
14675;SDS011;7426;52.524;13.460;2022-10-31T04:18:14;29.6;;;9.087499999999999;;
14675;SDS011;7426;52.524;13.460;2022-10-31T04:20:15;19.375;;;8.8;;
14675;SDS011;7426;52.524;13.460;2022-10-31T04:22:15;16.525;;;9.925;;
14675;SDS011;7426;52.524;13.460;2022-10-31T04:24:14;13.412500000000001;;;9.025;;
14675;SDS011;7426;52.524;13.460;2022-10-31T04:26:14;14.55;;;7.9875;;
14675;SDS011;7426;52.524;13.460;2022-10-31T04:28:14;20.575000000000003;;;8.7875;;
14675;SDS011;7426;52.524;13.460;2022-10-31T04:30:14;12.925;;;9.4875;;
14675;SDS011;7426;52.524;13.460;2022-10-31T04:32:14;31.412499999999998;;;9.075000000000001;;
14675;SDS011;7426;52.524;13.460;2022-10-31T04:34:14;17.3625;;;9.2125;;
14675;SDS011;7426;52.524;13.460;2022-10-31T04:36:14;12.6375;;;8.8375;;
14675;SDS011;7426;52.524;13.460;2022-10-31T04:38:14;22.925;;;10.1875;;
14675;SDS011;7426;52.524;13.460;2022-10-31T04:40:14;10.05;;;8.524999999999999;;
14675;SDS011;7426;52.524;13.460;2022-10-31T04:42:14;23.099999999999998;;;8.9625;;
14675;SDS011;7426;52.524;13.460;2022-10-31T04:44:14;17.275;;;9.6375;;
14675;SDS011;7426;52.524;13.460;2022-10-31T04:46:14;11.8875;;;9.0375;;
14675;SDS011;7426;52.524;13.460;2022-10-31T04:48:14;15.8;;;9.9125;;
14675;SDS011;7426;52.524;13.460;2022-10-31T04:50:14;13.4875;;;8.299999999999999;;
14675;SDS011;7426;52.524;13.460;2022-10-31T04:52:14;13.149999999999999;;;8.6;;
14675;SDS011;7426;52.524;13.460;2022-10-31T04:54:14;14.9375;;;8.425;;
14675;SDS011;7426;52.524;13.460;2022-10-31T04:56:14;13.325;;;8.399999999999999;;
14675;SDS011;7426;52.524;13.460;2022-10-31T04:58:14;15.1375;;;9.175;;
14675;SDS011;7426;52.524;13.460;2022-10-31T05:00:15;10.65;;;8.675;;
14675;SDS011;7426;52.524;13.460;2022-10-31T05:02:15;13.774999999999999;;;8.6125;;
14675;SDS011;7426;52.524;13.460;2022-10-31T05:04:14;12.925;;;9.9375;;
14675;SDS011;7426;52.524;13.460;2022-10-31T05:06:16;13.524999999999999;;;9.8625;;
14675;SDS011;7426;52.524;13.460;2022-10-31T05:08:14;14.0;;;9.1;;
14675;SDS011;7426;52.524;13.460;2022-10-31T05:10:16;14.1375;;;9.35;;
14675;SDS011;7426;52.524;13.460;2022-10-31T05:12:14;15.3875;;;9.75;;
14675;SDS011;7426;52.524;13.460;2022-10-31T05:14:14;15.6625;;;8.6875;;
14675;SDS011;7426;52.524;13.460;2022-10-31T05:16:14;22.125;;;8.3875;;
14675;SDS011;7426;52.524;13.460;2022-10-31T05:18:14;18.575;;;8.350000000000001;;
14675;SDS011;7426;52.524;13.460;2022-10-31T05:20:15;13.8625;;;8.875;;
14675;SDS011;7426;52.524;13.460;2022-10-31T05:22:14;20.05;;;9.524999999999999;;
14675;SDS011;7426;52.524;13.460;2022-10-31T05:24:14;15.325;;;8.9;;
14675;SDS011;7426;52.524;13.460;2022-10-31T05:26:14;20.887500000000003;;;9.524999999999999;;
14675;SDS011;7426;52.524;13.460;2022-10-31T05:28:14;9.6;;;7.7;;
14675;SDS011;7426;52.524;13.460;2022-10-31T05:30:15;19.2625;;;8.2125;;
14675;SDS011;7426;52.524;13.460;2022-10-31T05:32:14;18.0875;;;9.3;;
14675;SDS011;7426;52.524;13.460;2022-10-31T05:34:14;16.2125;;;8.2125;;
14675;SDS011;7426;52.524;13.460;2022-10-31T05:36:14;11.3;;;8.962499999999999;;
14675;SDS011;7426;52.524;13.460;2022-10-31T05:38:14;18.5375;;;7.975;;
14675;SDS011;7426;52.524;13.460;2022-10-31T05:40:15;15.375;;;8.825;;
14675;SDS011;7426;52.524;13.460;2022-10-31T05:42:14;22.3125;;;9.6125;;
14675;SDS011;7426;52.524;13.460;2022-10-31T05:44:14;9.375;;;8.0625;;
14675;SDS011;7426;52.524;13.460;2022-10-31T05:46:14;14.3625;;;9.299999999999999;;
14675;SDS011;7426;52.524;13.460;2022-10-31T05:48:14;12.5;;;9.9375;;
14675;SDS011;7426;52.524;13.460;2022-10-31T05:50:14;20.125;;;10.475000000000001;;
14675;SDS011;7426;52.524;13.460;2022-10-31T05:52:14;12.350000000000001;;;9.05;;
14675;SDS011;7426;52.524;13.460;2022-10-31T05:54:14;15.512500000000001;;;10.55;;
14675;SDS011;7426;52.524;13.460;2022-10-31T05:56:15;12.725;;;9.7625;;
14675;SDS011;7426;52.524;13.460;2022-10-31T05:58:14;17.3125;;;9.524999999999999;;
14675;SDS011;7426;52.524;13.460;2022-10-31T06:00:14;20.8375;;;9.7125;;
14675;SDS011;7426;52.524;13.460;2022-10-31T06:02:14;13.162500000000001;;;9.1;;
14675;SDS011;7426;52.524;13.460;2022-10-31T06:04:14;15.587499999999999;;;9.0875;;
14675;SDS011;7426;52.524;13.460;2022-10-31T06:06:14;14.8875;;;10.625;;
14675;SDS011;7426;52.524;13.460;2022-10-31T06:08:14;25.375;;;9.412500000000001;;
14675;SDS011;7426;52.524;13.460;2022-10-31T06:10:14;15.725000000000001;;;9.775;;
14675;SDS011;7426;52.524;13.460;2022-10-31T06:12:14;20.112499999999997;;;9.8875;;
14675;SDS011;7426;52.524;13.460;2022-10-31T06:14:14;11.7875;;;8.2875;;
14675;SDS011;7426;52.524;13.460;2022-10-31T06:16:14;14.049999999999999;;;8.2625;;
14675;SDS011;7426;52.524;13.460;2022-10-31T06:18:14;22.15;;;8.875;;
14675;SDS011;7426;52.524;13.460;2022-10-31T06:20:14;15.700000000000001;;;9.5625;;
14675;SDS011;7426;52.524;13.460;2022-10-31T06:22:14;17.9625;;;9.2875;;
14675;SDS011;7426;52.524;13.460;2022-10-31T06:24:15;17.662499999999998;;;9.675;;
14675;SDS011;7426;52.524;13.460;2022-10-31T06:26:14;23.0625;;;9.675;;
14675;SDS011;7426;52.524;13.460;2022-10-31T06:28:14;17.375;;;9.75;;
14675;SDS011;7426;52.524;13.460;2022-10-31T06:30:14;12.4125;;;9.125;;
14675;SDS011;7426;52.524;13.460;2022-10-31T06:32:15;11.675;;;9.825;;
14675;SDS011;7426;52.524;13.460;2022-10-31T06:34:14;14.8125;;;10.4625;;
14675;SDS011;7426;52.524;13.460;2022-10-31T06:36:14;16.15;;;8.075;;
14675;SDS011;7426;52.524;13.460;2022-10-31T06:38:14;17.0125;;;12.212499999999999;;
14675;SDS011;7426;52.524;13.460;2022-10-31T06:40:14;18.0375;;;9.962500000000002;;
14675;SDS011;7426;52.524;13.460;2022-10-31T06:42:14;16.3625;;;9.9625;;
14675;SDS011;7426;52.524;13.460;2022-10-31T06:44:14;17.025;;;9.65;;
14675;SDS011;7426;52.524;13.460;2022-10-31T06:46:14;19.75;;;9.912500000000001;;
14675;SDS011;7426;52.524;13.460;2022-10-31T06:48:14;16.325;;;10.3625;;
14675;SDS011;7426;52.524;13.460;2022-10-31T06:50:14;18.8875;;;9.2125;;
14675;SDS011;7426;52.524;13.460;2022-10-31T06:52:14;17.95;;;8.9125;;
14675;SDS011;7426;52.524;13.460;2022-10-31T06:54:14;16.512500000000003;;;9.5875;;
14675;SDS011;7426;52.524;13.460;2022-10-31T06:56:14;11.525;;;8.9125;;
14675;SDS011;7426;52.524;13.460;2022-10-31T06:58:14;11.65;;;8.5375;;
14675;SDS011;7426;52.524;13.460;2022-10-31T07:00:15;28.937500000000004;;;8.25;;
14675;SDS011;7426;52.524;13.460;2022-10-31T07:02:14;11.1875;;;8.3125;;
14675;SDS011;7426;52.524;13.460;2022-10-31T07:04:14;9.55;;;7.3625;;
14675;SDS011;7426;52.524;13.460;2022-10-31T07:06:15;11.837499999999999;;;8.1375;;
14675;SDS011;7426;52.524;13.460;2022-10-31T07:08:15;13.15;;;9.45;;
14675;SDS011;7426;52.524;13.460;2022-10-31T07:10:14;23.1;;;9.399999999999999;;
14675;SDS011;7426;52.524;13.460;2022-10-31T07:12:15;19.299999999999997;;;9.7;;
14675;SDS011;7426;52.524;13.460;2022-10-31T07:14:14;13.2375;;;9.4125;;
14675;SDS011;7426;52.524;13.460;2022-10-31T07:16:14;25.9375;;;9.8625;;
14675;SDS011;7426;52.524;13.460;2022-10-31T07:18:14;20.7875;;;8.8625;;
14675;SDS011;7426;52.524;13.460;2022-10-31T07:20:14;14.9375;;;9.875;;
14675;SDS011;7426;52.524;13.460;2022-10-31T07:22:14;16.2125;;;9.4;;
14675;SDS011;7426;52.524;13.460;2022-10-31T07:24:14;11.7;;;8.712499999999999;;
14675;SDS011;7426;52.524;13.460;2022-10-31T07:26:14;16.7375;;;9.55;;
14675;SDS011;7426;52.524;13.460;2022-10-31T07:28:14;12.85;;;8.1;;
14675;SDS011;7426;52.524;13.460;2022-10-31T07:30:16;16.9;;;10.4875;;
14675;SDS011;7426;52.524;13.460;2022-10-31T07:32:14;12.462499999999999;;;9.05;;
14675;SDS011;7426;52.524;13.460;2022-10-31T07:34:14;20.825000000000003;;;8.9875;;
14675;SDS011;7426;52.524;13.460;2022-10-31T07:36:14;16.9125;;;9.125;;
14675;SDS011;7426;52.524;13.460;2022-10-31T07:38:14;18.725;;;8.75;;
14675;SDS011;7426;52.524;13.460;2022-10-31T07:40:14;19.612499999999997;;;11.1125;;
14675;SDS011;7426;52.524;13.460;2022-10-31T07:42:14;12.0625;;;9.4;;
14675;SDS011;7426;52.524;13.460;2022-10-31T07:44:14;17.9375;;;9.3875;;
14675;SDS011;7426;52.524;13.460;2022-10-31T07:46:14;13.375;;;9.9;;
14675;SDS011;7426;52.524;13.460;2022-10-31T07:48:14;17.125;;;9.375;;
14675;SDS011;7426;52.524;13.460;2022-10-31T07:50:15;16.5375;;;9.5375;;
14675;SDS011;7426;52.524;13.460;2022-10-31T07:52:14;27.175;;;11.625;;
14675;SDS011;7426;52.524;13.460;2022-10-31T07:54:14;14.6;;;9.1125;;
14675;SDS011;7426;52.524;13.460;2022-10-31T07:56:14;15.375;;;9.275;;
14675;SDS011;7426;52.524;13.460;2022-10-31T07:58:15;13.5625;;;9.9625;;
14675;SDS011;7426;52.524;13.460;2022-10-31T08:00:14;15.274999999999999;;;9.087499999999999;;
14675;SDS011;7426;52.524;13.460;2022-10-31T08:02:14;17.450000000000003;;;8.675;;
14675;SDS011;7426;52.524;13.460;2022-10-31T08:04:14;18.275;;;9.8625;;
14675;SDS011;7426;52.524;13.460;2022-10-31T08:06:14;24.3625;;;9.625;;
14675;SDS011;7426;52.524;13.460;2022-10-31T08:08:14;13.912500000000001;;;9.649999999999999;;
14675;SDS011;7426;52.524;13.460;2022-10-31T08:10:15;20.3375;;;10.5;;
14675;SDS011;7426;52.524;13.460;2022-10-31T08:12:14;15.625;;;9.775;;
14675;SDS011;7426;52.524;13.460;2022-10-31T08:14:14;16.5625;;;10.4;;
14675;SDS011;7426;52.524;13.460;2022-10-31T08:16:14;16.0125;;;10.662500000000001;;
14675;SDS011;7426;52.524;13.460;2022-10-31T08:18:15;18.262500000000003;;;11.425;;
14675;SDS011;7426;52.524;13.460;2022-10-31T08:20:14;14.1;;;10.399999999999999;;
14675;SDS011;7426;52.524;13.460;2022-10-31T08:22:14;22.9125;;;9.9625;;
14675;SDS011;7426;52.524;13.460;2022-10-31T08:24:14;19.7375;;;10.675;;
14675;SDS011;7426;52.524;13.460;2022-10-31T08:26:14;22.5375;;;9.1125;;
14675;SDS011;7426;52.524;13.460;2022-10-31T08:28:14;17.45;;;10.850000000000001;;
14675;SDS011;7426;52.524;13.460;2022-10-31T08:30:14;14.9625;;;9.5375;;
14675;SDS011;7426;52.524;13.460;2022-10-31T08:32:14;16.075000000000003;;;10.2375;;
14675;SDS011;7426;52.524;13.460;2022-10-31T08:34:14;19.75;;;9.625;;
14675;SDS011;7426;52.524;13.460;2022-10-31T08:36:15;11.7875;;;10.0;;
14675;SDS011;7426;52.524;13.460;2022-10-31T08:38:14;27.662499999999998;;;10.6125;;
14675;SDS011;7426;52.524;13.460;2022-10-31T08:40:14;16.7875;;;11.65;;
14675;SDS011;7426;52.524;13.460;2022-10-31T08:42:14;21.5;;;10.7375;;
14675;SDS011;7426;52.524;13.460;2022-10-31T08:44:15;17.3875;;;10.0875;;
14675;SDS011;7426;52.524;13.460;2022-10-31T08:46:14;16.3125;;;9.9375;;
14675;SDS011;7426;52.524;13.460;2022-10-31T08:48:15;17.2125;;;11.7;;
14675;SDS011;7426;52.524;13.460;2022-10-31T08:50:14;16.625;;;10.399999999999999;;
14675;SDS011;7426;52.524;13.460;2022-10-31T08:52:14;28.637500000000003;;;11.350000000000001;;
14675;SDS011;7426;52.524;13.460;2022-10-31T08:54:14;18.4625;;;11.2625;;
14675;SDS011;7426;52.524;13.460;2022-10-31T08:56:14;26.4;;;11.5875;;
14675;SDS011;7426;52.524;13.460;2022-10-31T08:58:16;16.2625;;;11.0125;;
14675;SDS011;7426;52.524;13.460;2022-10-31T09:00:14;20.9;;;10.975;;
14675;SDS011;7426;52.524;13.460;2022-10-31T09:02:14;22.175;;;10.825;;
14675;SDS011;7426;52.524;13.460;2022-10-31T09:04:14;15.9875;;;10.8625;;
14675;SDS011;7426;52.524;13.460;2022-10-31T09:06:14;23.525;;;11.1;;
14675;SDS011;7426;52.524;13.460;2022-10-31T09:08:15;36.2;;;11.8375;;
14675;SDS011;7426;52.524;13.460;2022-10-31T09:10:14;28.8375;;;12.9375;;
14675;SDS011;7426;52.524;13.460;2022-10-31T09:12:14;17.925;;;10.712499999999999;;
14675;SDS011;7426;52.524;13.460;2022-10-31T09:14:14;16.799999999999997;;;12.125;;
14675;SDS011;7426;52.524;13.460;2022-10-31T09:16:14;24.1125;;;10.5125;;
14675;SDS011;7426;52.524;13.460;2022-10-31T09:18:14;24.25;;;12.725;;
14675;SDS011;7426;52.524;13.460;2022-10-31T09:20:14;13.45;;;11.212499999999999;;
14675;SDS011;7426;52.524;13.460;2022-10-31T09:22:14;16.150000000000002;;;12.6375;;
14675;SDS011;7426;52.524;13.460;2022-10-31T09:24:15;21.3875;;;12.6375;;
14675;SDS011;7426;52.524;13.460;2022-10-31T09:26:15;20.1;;;13.0625;;
14675;SDS011;7426;52.524;13.460;2022-10-31T09:28:14;30.9625;;;11.100000000000001;;
14675;SDS011;7426;52.524;13.460;2022-10-31T09:30:14;17.875;;;11.9875;;
14675;SDS011;7426;52.524;13.460;2022-10-31T09:32:14;30.975;;;11.875;;
14675;SDS011;7426;52.524;13.460;2022-10-31T09:34:15;22.0875;;;13.525;;
14675;SDS011;7426;52.524;13.460;2022-10-31T09:36:14;20.012500000000003;;;12.2875;;
14675;SDS011;7426;52.524;13.460;2022-10-31T09:38:16;23.837500000000002;;;11.399999999999999;;
14675;SDS011;7426;52.524;13.460;2022-10-31T09:40:14;18.8875;;;12.9375;;
14675;SDS011;7426;52.524;13.460;2022-10-31T09:42:20;19.975;;;10.975000000000001;;
14675;SDS011;7426;52.524;13.460;2022-10-31T09:44:17;26.012500000000003;;;12.8125;;
14675;SDS011;7426;52.524;13.460;2022-10-31T09:46:15;20.6875;;;12.325;;
14675;SDS011;7426;52.524;13.460;2022-10-31T09:48:18;24.7875;;;12.8625;;
14675;SDS011;7426;52.524;13.460;2022-10-31T09:50:14;23.675;;;13.9;;
14675;SDS011;7426;52.524;13.460;2022-10-31T09:52:16;28.2125;;;13.087499999999999;;
14675;SDS011;7426;52.524;13.460;2022-10-31T09:54:14;19.9375;;;14.35;;
14675;SDS011;7426;52.524;13.460;2022-10-31T09:56:15;26.6875;;;14.7375;;
14675;SDS011;7426;52.524;13.460;2022-10-31T09:58:15;18.3625;;;12.787500000000001;;
14675;SDS011;7426;52.524;13.460;2022-10-31T10:00:16;17.737499999999997;;;12.025;;
14675;SDS011;7426;52.524;13.460;2022-10-31T10:02:15;25.75;;;13.549999999999999;;
14675;SDS011;7426;52.524;13.460;2022-10-31T10:04:17;23.65;;;13.274999999999999;;
14675;SDS011;7426;52.524;13.460;2022-10-31T10:06:14;26.625;;;14.45;;
14675;SDS011;7426;52.524;13.460;2022-10-31T10:08:16;30.487499999999997;;;14.4;;
14675;SDS011;7426;52.524;13.460;2022-10-31T10:10:15;17.0625;;;12.575;;
14675;SDS011;7426;52.524;13.460;2022-10-31T10:12:16;23.0625;;;15.3;;
14675;SDS011;7426;52.524;13.460;2022-10-31T10:14:19;25.125;;;14.0625;;
14675;SDS011;7426;52.524;13.460;2022-10-31T10:16:17;37.075;;;14.95;;
14675;SDS011;7426;52.524;13.460;2022-10-31T10:18:17;24.174999999999997;;;16.325;;
14675;SDS011;7426;52.524;13.460;2022-10-31T10:20:17;26.800000000000004;;;16.275;;
14675;SDS011;7426;52.524;13.460;2022-10-31T10:22:15;33.574999999999996;;;16.25;;
14675;SDS011;7426;52.524;13.460;2022-10-31T10:24:18;25.625;;;14.2375;;
14675;SDS011;7426;52.524;13.460;2022-10-31T10:26:16;26.049999999999997;;;15.075;;
14675;SDS011;7426;52.524;13.460;2022-10-31T10:28:16;31.362500000000004;;;16.225;;
14675;SDS011;7426;52.524;13.460;2022-10-31T10:30:15;32.099999999999994;;;16.975;;
14675;SDS011;7426;52.524;13.460;2022-10-31T10:32:17;28.45;;;17.262500000000003;;
14675;SDS011;7426;52.524;13.460;2022-10-31T10:34:18;33.4;;;17.675;;
14675;SDS011;7426;52.524;13.460;2022-10-31T10:36:16;29.3625;;;18.5;;
14675;SDS011;7426;52.524;13.460;2022-10-31T10:38:16;24.1;;;17.0875;;
14675;SDS011;7426;52.524;13.460;2022-10-31T10:40:16;20.5625;;;16.425;;